Flight Track Log - Related Links

Times and Time Zones

All times are in EDT time to prevent confusion due to time zone crossing. See the VNR160 flight status page for this flight to view local times or setup timezone preferences in your user account.

Time Position Orientation Groundspeed Altitude Reporting Facility
EDT Latitude Longitude Course Direction KTS MPH feet Rate Location/Type
Fri 10:07:05 PM 30.1589 -92.0428 226° Southwest 189 217 20,000  Level Houston Center
Fri 10:08:06 PM 30.1236 -92.0872 227° Southwest 207 238 3,900 -6,934 Descending Houston Center
Fri 10:09:07 PM 30.0875 -92.1344 229° Southwest 195 224 5,900 2,311 Climbing Houston Center
Fri 10:10:08 PM 30.0439 -92.1928 229° Southwest 199 229 8,600 2,410 Climbing Houston Center
Fri 10:11:09 PM 30.0056 -92.2417 228° Southwest 202 232 10,800 2,066 Climbing Houston Center
Fri 10:12:00 PM 29.8933 -92.4081 226° Southwest  Level FlightAware Approximate
Fri 10:12:10 PM 29.9661 -92.2939 229° Southwest 213 245 12,800  Level Houston Center
Fri 10:13:12 PM 29.9267 -92.3497 231° Southwest 223 257 14,800 1,854 Climbing Houston Center
Fri 10:14:13 PM 29.8822 -92.4072 228° Southwest 233 268 16,600 1,820 Climbing Houston Center
Fri 10:15:14 PM 29.8367 -92.4681 229° Southwest 243 280 18,500 1,623 Climbing Houston Center
Fri 10:16:15 PM 29.8158 -92.5469 253° West 259 298 19,900 738 Climbing Houston Center
Fri 10:17:16 PM 29.7914 -92.6350 252° West 272 313 20,000 49 Climbing Houston Center
Fri 10:18:17 PM 29.7636 -92.7369 253° West 319 367 20,000  Level Houston Center
Fri 10:19:18 PM 29.7361 -92.8381 253° West 329 379 20,000  Level Houston Center
Fri 10:20:19 PM 29.7069 -92.9372 251° West 327 376 20,000  Level Houston Center
Fri 10:21:20 PM 29.6808 -93.0367 253° West 325 374 20,000  Level Houston Center
Fri 10:22:22 PM 29.6522 -93.1344 251° West 323 372 20,000  Level Houston Center
Fri 10:23:23 PM 29.6197 -93.2522 252° West 323 372 20,000 -197 Level Houston Center
Fri 10:24:24 PM 29.5922 -93.3517 252° West 324 373 19,600 -590 Descending Houston Center
Fri 10:25:25 PM 29.5622 -93.4544 251° West 334 384 18,800 -738 Descending Houston Center
Fri 10:26:26 PM 29.5342 -93.5550 252° West 332 382 18,100 -738 Descending Houston Center
Fri 10:27:27 PM 29.5081 -93.6475 252° West 309 356 17,300 -689 Descending Houston Center
Fri 10:28:28 PM 29.4839 -93.7344 252° West 290 334 16,700 -541 Descending Houston Center
Fri 10:29:29 PM 29.4581 -93.8239 252° West 294 338 16,200  Descending Houston Center
Fri 10:30:31 PM 29.4656 -93.9086 276° West 294 338 16,700 836 Climbing Houston Center
Fri 10:31:31 PM 29.5308 -93.9611 325° Northwest 287 330 17,900 1,440 Climbing Houston Center
Fri 10:31:46 PM 29.5564 -93.9817 325° Northwest 288 331 18,500 1,650 Climbing Houston Center
Fri 10:32:11 PM 29.5839 -94.0044 324° Northwest 289 333 19,000 1,043 Climbing Houston Center
Fri 10:32:32 PM 29.5978 -94.0142 329° Northwest 290 334 19,300 984 Climbing Houston Center
Fri 10:33:12 PM 29.6478 -94.0536 326° Northwest 291 335 20,000 689 Climbing Houston Center
Fri 10:33:33 PM 29.6658 -94.0658 330° Northwest 293 337 20,000  Level Houston Center
Fri 10:34:13 PM 29.7256 -94.1131 326° Northwest 322 371 20,000  Level Houston Center
Fri 10:34:34 PM 29.7403 -94.1253 324° Northwest 314 361 20,000  Level Houston Center
Fri 10:35:14 PM 29.8011 -94.1753 325° Northwest 340 391 20,000 97 Level Houston Center
Fri 10:35:36 PM 29.8244 -94.1925 327° Northwest 335 386 20,100 1,446 Climbing Houston Center
Fri 10:36:37 PM 29.8983 -94.2533 324° Northwest 333 383 22,000 1,967 Climbing Houston Center
Fri 10:37:38 PM 29.9650 -94.3108 323° Northwest 281 323 24,100 1,869 Climbing Houston Center
Fri 10:38:39 PM 30.0242 -94.3608 324° Northwest 266 306 25,800 1,475 Climbing Houston Center
Fri 10:39:40 PM 30.0872 -94.4128 325° Northwest 273 314 27,100 1,377 Climbing Houston Center
Fri 10:40:41 PM 30.1514 -94.4667 324° Northwest 283 326 28,600 1,377 Climbing Houston Center
Fri 10:41:42 PM 30.2186 -94.5214 325° Northwest 284 327 29,900 689 Climbing Houston Center
Fri 10:42:43 PM 30.2853 -94.5775 324° Northwest 297 342 30,000 49 Climbing Houston Center
Fri 10:43:44 PM 30.3583 -94.6394 324° Northwest 325 374 30,000  Level Houston Center
Fri 10:44:45 PM 30.4356 -94.7028 325° Northwest 340 391 30,000  Level Houston Center
Fri 10:45:46 PM 30.5147 -94.7722 323° Northwest 345 397 30,000  Level Houston Center
Fri 10:46:47 PM 30.5931 -94.8386 324° Northwest 347 399 30,000  Level Houston Center
Fri 10:47:48 PM 30.6731 -94.9061 324° Northwest 352 405 30,000  Level Houston Center
Fri 10:48:49 PM 30.7525 -94.9733 324° Northwest 352 405 30,000  Level Houston Center
Fri 10:49:50 PM 30.8306 -95.0417 323° Northwest 350 403 30,000  Level Houston Center
Fri 10:50:51 PM 30.9094 -95.1094 324° Northwest 350 403 30,000  Level Houston Center
Fri 10:51:52 PM 30.9897 -95.1772 324° Northwest 352 405 30,000  Level Houston Center
Fri 10:52:53 PM 31.0692 -95.2450 324° Northwest 351 404 30,000  Level Houston Center
Fri 10:53:55 PM 31.1500 -95.3161 323° Northwest 347 399 30,000  Level Fort Worth Center
Fri 10:54:55 PM 31.2408 -95.3894 325° Northwest 342 394 30,000  Level Fort Worth Center
Fri 10:55:55 PM 31.3150 -95.4536 324° Northwest 342 394 30,000  Level Fort Worth Center
Fri 10:56:55 PM 31.3953 -95.5225 324° Northwest 349 402 30,000  Level Fort Worth Center
Fri 10:57:55 PM 31.4694 -95.5867 324° Northwest 349 402 30,000  Level Fort Worth Center
Fri 10:58:55 PM 31.5478 -95.6583 322° Northwest 349 402 30,000 -550 Level Fort Worth Center
Fri 10:59:55 PM 31.6300 -95.7275 324° Northwest 349 402 28,900 -1,550 Descending Fort Worth Center
Fri 11:00:55 PM 31.6997 -95.7919 322° Northwest 354 407 26,900 -2,100 Descending Fort Worth Center
Fri 11:01:55 PM 31.7800 -95.8614 324° Northwest 354 407 24,700 -2,150 Descending Fort Worth Center
Fri 11:02:55 PM 31.8561 -95.9286 323° Northwest 348 400 22,600 -2,100 Descending Fort Worth Center
Fri 11:03:55 PM 31.9319 -95.9936 324° Northwest 348 400 20,500 -2,100 Descending Fort Worth Center
Fri 11:04:55 PM 32.0036 -96.0586 322° Northwest 309 356 18,400 -1,950 Descending Fort Worth Center
Fri 11:05:55 PM 32.0753 -96.1164 326° Northwest 304 350 16,600 -1,850 Descending Fort Worth Center
Fri 11:06:55 PM 32.1425 -96.1792 322° Northwest 304 350 14,700 -2,000 Descending Fort Worth Center
Fri 11:07:55 PM 32.2142 -96.2347 327° Northwest 304 350 12,600 -1,950 Descending Fort Worth Center
Fri 11:08:55 PM 32.2875 -96.2806 332° Northwest 304 350 10,800 -1,750 Descending Fort Worth Center
Fri 11:09:55 PM 32.3589 -96.3264 332° Northwest 299 344 9,100 -1,800 Descending Fort Worth Center
Fri 11:10:55 PM 32.4303 -96.3672 334° Northwest 287 330 7,200 -1,500 Descending Fort Worth Center
Fri 11:11:55 PM 32.4994 -96.4058 335° Northwest 287 330 6,100 -1,050 Descending Fort Worth Center
Fri 11:12:55 PM 32.5689 -96.4494 332° Northwest 280 322 5,100 -1,000 Descending Fort Worth Center
Fri 11:13:55 PM 32.6400 -96.4933 333° Northwest 286 329 4,100 -550 Descending Fort Worth Center
Fri 11:14:55 PM 32.7050 -96.5444 327° Northwest 291 335 4,000 -50 Descending Fort Worth Center
Fri 11:15:55 PM 32.7661 -96.6031 321° Northwest 285 328 4,000  Level Fort Worth Center
Fri 11:16:55 PM 32.8250 -96.6619 320° Northwest 279 321 4,000  Level Fort Worth Center
Fri 11:17:55 PM 32.8817 -96.7158 321° Northwest 273 314 4,000 -300 Level Fort Worth Center
Fri 11:18:55 PM 32.9153 -96.7725 305° West 243 280 3,400 -694 Descending Fort Worth Center
Fri 11:19:56 PM 32.9333 -96.8333 289° West 190 219 2,600 -893 Descending Dallas / Fort Worth TRACON
Fri 11:20:56 PM 32.9167 -96.8833 248° West 148 170 1,600 -737 Descending Dallas / Fort Worth TRACON
Fri 11:21:50 PM 32.8833 -96.8833 180° South 117 135 1,200 -444 Descending Dallas / Fort Worth TRACON
Fri 11:23:00 PM 32.8471 -96.8518 220° Southwest  Level Estimated
Fri 11:30:00 PM 32.8471 -96.8518 220° Southwest  Level Estimated
Fri 11:31:00 PM 32.8471 -96.8518 220° Southwest  Level Estimated

Login

Don't have an account? Register now (free) for customized features, flight alerts, and more!